Time;durP1;ratioP1;P1;durP2;ratioP2;P2;SDS_P1;SDS_P2;PMS_P1;PMS_P2;Temp;Humidity;BMP_temperature;BMP_pressure;BME280_temperature;BME280_humidity;BME280_pressure;Samples;Min_cycle;Max_cycle;Signal;HPM_P1;HPM_P2
2021/09/13 00:01:14;;;;;;;9.30;8.07;;;;;;;;;;4999317;28;20182;-71
2021/09/13 00:03:39;;;;;;;11.20;7.90;;;;;;;;;;5009828;23;20250;-70
2021/09/13 00:06:04;;;;;;;10.50;8.70;;;;;;;;;;4991033;28;20660;-72
2021/09/13 00:08:29;;;;;;;10.68;8.32;;;;;;;;;;5001900;28;20804;-70
2021/09/13 00:10:54;;;;;;;8.17;7.00;;;;;;;;;;4990583;28;20171;-70
2021/09/13 00:13:20;;;;;;;9.50;7.53;;;;;;;;;;4991604;28;20199;-70
2021/09/13 00:15:45;;;;;;;9.87;8.30;;;;;;;;;;4995089;28;20178;-70
2021/09/13 00:18:10;;;;;;;9.70;7.73;;;;;;;;;;4995982;28;20187;-69
2021/09/13 00:20:35;;;;;;;9.40;7.67;;;;;;;;;;4988890;28;20183;-70
2021/09/13 00:23:01;;;;;;;7.70;6.27;;;;;;;;;;5008766;28;20210;-70
2021/09/13 00:25:27;;;;;;;9.93;7.77;;;;;;;;;;5005516;28;20222;-69
2021/09/13 00:27:53;;;;;;;7.83;6.30;;;;;;;;;;4998763;28;20629;-70
2021/09/13 00:30:19;;;;;;;9.77;7.63;;;;;;;;;;4997666;28;20216;-69
2021/09/13 00:32:44;;;;;;;10.57;6.90;;;;;;;;;;4998398;28;20203;-69
2021/09/13 00:35:09;;;;;;;12.30;7.97;;;;;;;;;;5004386;28;20186;-70
2021/09/13 00:37:35;;;;;;;10.80;7.93;;;;;;;;;;4986284;28;20187;-69
2021/09/13 00:40:00;;;;;;;9.17;7.50;;;;;;;;;;5000959;28;20206;-70
2021/09/13 00:42:25;;;;;;;12.27;7.60;;;;;;;;;;4988635;28;20191;-70
2021/09/13 00:44:50;;;;;;;7.93;7.13;;;;;;;;;;4988446;28;20183;-71
2021/09/13 00:47:16;;;;;;;10.47;8.13;;;;;;;;;;4993646;28;20177;-69
2021/09/13 00:49:41;;;;;;;8.47;7.43;;;;;;;;;;5005421;28;20225;-70
2021/09/13 00:52:06;;;;;;;9.13;7.23;;;;;;;;;;5003337;28;20175;-69
2021/09/13 00:54:31;;;;;;;10.60;8.30;;;;;;;;;;5005338;28;20183;-70
2021/09/13 00:56:57;;;;;;;9.27;7.60;;;;;;;;;;5007579;28;20197;-70
2021/09/13 00:59:22;;;;;;;10.47;8.13;;;;;;;;;;5004391;28;20179;-69
2021/09/13 01:01:47;;;;;;;10.17;8.53;;;;;;;;;;5006341;28;20582;-69
2021/09/13 01:04:13;;;;;;;10.00;7.73;;;;;;;;;;4987257;28;20238;-69
2021/09/13 01:06:38;;;;;;;14.23;10.30;;;;;;;;;;5005668;28;20201;-70
2021/09/13 01:09:03;;;;;;;12.40;9.73;;;;;;;;;;4981684;28;20205;-69
2021/09/13 01:11:28;;;;;;;11.03;9.40;;;;;;;;;;5005203;28;20179;-69
2021/09/13 01:13:53;;;;;;;10.77;8.97;;;;;;;;;;4991973;28;20206;-70
2021/09/13 01:16:19;;;;;;;13.67;10.03;;;;;;;;;;5000719;28;20236;-69
2021/09/13 01:18:44;;;;;;;10.90;9.73;;;;;;;;;;5004158;28;20237;-70
2021/09/13 01:21:09;;;;;;;11.90;8.97;;;;;;;;;;4990436;28;21236;-71
2021/09/13 01:23:35;;;;;;;10.17;8.77;;;;;;;;;;5003671;28;20278;-71
2021/09/13 01:26:01;;;;;;;13.83;10.07;;;;;;;;;;4994521;28;20577;-69
2021/09/13 01:28:26;;;;;;;15.83;10.93;;;;;;;;;;5003206;28;20213;-71
2021/09/13 01:30:52;;;;;;;13.07;9.93;;;;;;;;;;5004716;28;20237;-71
2021/09/13 01:33:17;;;;;;;10.97;9.37;;;;;;;;;;5007100;28;20202;-71
2021/09/13 01:35:43;;;;;;;14.23;9.37;;;;;;;;;;5006351;28;20195;-71
2021/09/13 01:38:08;;;;;;;12.53;10.17;;;;;;;;;;5000898;28;20167;-68
2021/09/13 01:40:33;;;;;;;12.83;10.00;;;;;;;;;;5003163;28;20260;-71
2021/09/13 01:42:59;;;;;;;13.60;10.53;;;;;;;;;;5006172;28;20199;-71
2021/09/13 01:45:25;;;;;;;11.20;8.10;;;;;;;;;;5006544;28;20244;-71
2021/09/13 01:47:50;;;;;;;18.27;9.80;;;;;;;;;;5008830;28;20190;-71
2021/09/13 01:50:15;;;;;;;12.80;9.83;;;;;;;;;;5007328;28;20665;-71
2021/09/13 01:52:40;;;;;;;12.63;9.37;;;;;;;;;;5008571;28;20199;-71
2021/09/13 01:55:06;;;;;;;12.77;9.33;;;;;;;;;;5005991;28;20193;-71
2021/09/13 01:57:31;;;;;;;12.37;8.43;;;;;;;;;;5007086;28;20242;-71
2021/09/13 01:59:56;;;;;;;11.10;8.27;;;;;;;;;;5009076;28;20214;-70
2021/09/13 02:02:21;;;;;;;10.10;7.97;;;;;;;;;;5010470;28;20202;-70
2021/09/13 02:04:47;;;;;;;12.30;8.33;;;;;;;;;;5008152;28;20270;-69
2021/09/13 02:07:12;;;;;;;9.67;7.50;;;;;;;;;;5008220;28;20186;-71
2021/09/13 02:09:37;;;;;;;9.33;7.97;;;;;;;;;;5011240;28;20171;-71
2021/09/13 02:12:02;;;;;;;7.43;5.60;;;;;;;;;;5012667;28;20293;-70
2021/09/13 02:14:28;;;;;;;6.57;5.83;;;;;;;;;;5011271;28;20167;-69
2021/09/13 02:16:53;;;;;;;6.90;5.40;;;;;;;;;;4997455;28;20194;-71
2021/09/13 02:19:18;;;;;;;7.83;5.23;;;;;;;;;;5008480;28;20278;-69
2021/09/13 02:21:43;;;;;;;7.13;5.37;;;;;;;;;;5009051;28;20648;-70
2021/09/13 02:24:08;;;;;;;5.60;4.73;;;;;;;;;;5011335;28;20202;-70
2021/09/13 02:26:33;;;;;;;6.80;5.27;;;;;;;;;;5011004;28;20202;-70
2021/09/13 02:28:59;;;;;;;7.70;6.03;;;;;;;;;;5011934;28;20190;-69
2021/09/13 02:31:26;;;;;;;6.40;5.40;;;;;;;;;;5009706;28;20179;-70
2021/09/13 02:33:51;;;;;;;8.20;5.87;;;;;;;;;;4994551;28;20219;-69
2021/09/13 02:36:16;;;;;;;6.10;5.40;;;;;;;;;;5008518;28;20248;-69
2021/09/13 02:38:41;;;;;;;6.10;4.60;;;;;;;;;;5006282;28;20179;-72
2021/09/13 02:41:07;;;;;;;5.90;5.00;;;;;;;;;;5003208;28;20194;-69
2021/09/13 02:43:32;;;;;;;6.17;4.20;;;;;;;;;;5013116;28;20284;-69
2021/09/13 02:45:57;;;;;;;5.43;4.50;;;;;;;;;;5009341;28;20202;-68
2021/09/13 02:48:22;;;;;;;5.93;4.33;;;;;;;;;;5008000;28;20171;-70
2021/09/13 02:50:48;;;;;;;6.17;4.50;;;;;;;;;;4988230;28;20186;-71
2021/09/13 02:53:13;;;;;;;5.53;4.10;;;;;;;;;;5009383;28;20247;-72
2021/09/13 02:55:38;;;;;;;6.17;5.23;;;;;;;;;;5010208;28;20179;-71
2021/09/13 02:58:03;;;;;;;6.20;4.97;;;;;;;;;;4995778;28;20265;-71
2021/09/13 03:00:28;;;;;;;8.33;5.57;;;;;;;;;;5006481;28;20179;-71
2021/09/13 03:02:53;;;;;;;8.80;6.20;;;;;;;;;;5009911;28;20226;-70
2021/09/13 03:05:19;;;;;;;8.50;6.20;;;;;;;;;;5006638;28;20210;-70
2021/09/13 03:07:44;;;;;;;8.33;6.80;;;;;;;;;;5007706;28;20187;-71
2021/09/13 03:10:09;;;;;;;12.20;7.80;;;;;;;;;;5009888;28;20680;-70
2021/09/13 03:12:35;;;;;;;9.43;6.77;;;;;;;;;;5008482;28;20688;-68
2021/09/13 03:15:04;;;;;;;12.10;8.40;;;;;;;;;;5009432;28;20230;-70
2021/09/13 03:17:30;;;;;;;12.00;7.90;;;;;;;;;;5009436;28;20225;-70
2021/09/13 03:19:55;;;;;;;11.17;8.23;;;;;;;;;;5008767;28;20208;-71
2021/09/13 03:22:20;;;;;;;10.87;8.57;;;;;;;;;;5011420;28;20257;-70
2021/09/13 03:24:45;;;;;;;12.37;7.90;;;;;;;;;;5010207;28;20183;-71
2021/09/13 03:27:11;;;;;;;17.93;10.37;;;;;;;;;;4999767;28;20184;-70
2021/09/13 03:29:36;;;;;;;14.93;10.17;;;;;;;;;;5004572;28;20254;-70
2021/09/13 03:32:01;;;;;;;15.20;9.87;;;;;;;;;;5009410;28;20183;-71
2021/09/13 03:34:26;;;;;;;13.00;8.30;;;;;;;;;;5000424;28;20215;-70
2021/09/13 03:36:52;;;;;;;12.93;8.67;;;;;;;;;;5002999;28;20179;-70
2021/09/13 03:39:18;;;;;;;13.37;9.43;;;;;;;;;;5006443;28;20191;-70
2021/09/13 03:41:43;;;;;;;16.27;10.57;;;;;;;;;;5002241;28;20203;-70
2021/09/13 03:44:08;;;;;;;14.10;9.53;;;;;;;;;;5010047;28;20249;-70
2021/09/13 03:46:33;;;;;;;13.47;9.13;;;;;;;;;;5006040;28;20207;-70
2021/09/13 03:48:58;;;;;;;12.40;9.57;;;;;;;;;;4999863;28;20298;-70
2021/09/13 03:51:23;;;;;;;11.60;8.90;;;;;;;;;;5007876;28;20190;-70
2021/09/13 03:53:49;;;;;;;12.70;9.07;;;;;;;;;;5010269;28;20567;-70
2021/09/13 03:56:14;;;;;;;13.77;9.33;;;;;;;;;;4989539;28;20197;-70
2021/09/13 03:58:39;;;;;;;12.57;7.83;;;;;;;;;;5008828;28;20178;-70
2021/09/13 04:01:04;;;;;;;10.13;7.93;;;;;;;;;;5007005;28;20183;-70
2021/09/13 04:03:33;;;;;;;10.13;7.30;;;;;;;;;;5009443;28;20206;-70
2021/09/13 04:05:59;;;;;;;10.10;6.73;;;;;;;;;;5004950;28;20613;-69
2021/09/13 04:13:23;;;;;;;9.17;5.93;;;;;;;;;;5007337;28;20208;-69
2021/09/13 04:15:48;;;;;;;8.33;6.53;;;;;;;;;;5009582;28;20266;-70
2021/09/13 04:18:13;;;;;;;9.90;7.27;;;;;;;;;;5007015;28;20191;-69
2021/09/13 04:20:38;;;;;;;7.47;5.83;;;;;;;;;;5001022;28;20549;-70
2021/09/13 04:23:04;;;;;;;8.77;6.30;;;;;;;;;;5010894;28;20222;-70
2021/09/13 04:25:29;;;;;;;6.80;5.83;;;;;;;;;;5009741;28;20190;-70
2021/09/13 04:27:54;;;;;;;10.53;7.07;;;;;;;;;;5010290;28;20190;-69
2021/09/13 04:30:21;;;;;;;10.60;7.70;;;;;;;;;;5009187;28;20175;-70
2021/09/13 04:32:46;;;;;;;10.17;7.60;;;;;;;;;;5010098;28;20191;-69
2021/09/13 04:35:11;;;;;;;9.30;6.17;;;;;;;;;;5001796;28;20182;-70
2021/09/13 04:37:36;;;;;;;7.27;6.17;;;;;;;;;;4996030;28;20238;-70
2021/09/13 04:40:02;;;;;;;6.03;5.40;;;;;;;;;;5005517;28;20167;-70
2021/09/13 04:42:27;;;;;;;9.30;6.60;;;;;;;;;;5007036;28;20289;-69
2021/09/13 04:44:52;;;;;;;10.03;6.57;;;;;;;;;;5007121;28;20178;-70
2021/09/13 04:47:17;;;;;;;6.23;5.60;;;;;;;;;;5007442;28;20219;-70
2021/09/13 04:49:42;;;;;;;13.80;6.40;;;;;;;;;;5003924;28;20316;-71
2021/09/13 04:52:08;;;;;;;8.13;6.10;;;;;;;;;;5007083;28;20202;-70
2021/09/13 04:54:33;;;;;;;7.73;6.50;;;;;;;;;;4988453;28;20195;-70
2021/09/13 04:56:58;;;;;;;8.50;6.70;;;;;;;;;;5009184;28;20187;-70
2021/09/13 04:59:23;;;;;;;6.30;5.50;;;;;;;;;;5008964;28;21733;-70
2021/09/13 05:01:48;;;;;;;10.17;7.60;;;;;;;;;;4995004;28;20184;-69
2021/09/13 05:04:13;;;;;;;9.33;7.53;;;;;;;;;;5006920;28;20721;-69
2021/09/13 05:06:39;;;;;;;13.57;9.50;;;;;;;;;;5008127;28;20356;-70
2021/09/13 05:09:04;;;;;;;13.60;10.20;;;;;;;;;;5008636;28;20190;-69
2021/09/13 05:11:30;;;;;;;12.93;10.27;;;;;;;;;;5007100;28;20258;-69
2021/09/13 05:13:55;;;;;;;14.80;10.40;;;;;;;;;;5009060;28;20680;-70
2021/09/13 05:16:20;;;;;;;14.43;10.67;;;;;;;;;;4983607;28;20179;-71
2021/09/13 05:18:46;;;;;;;14.80;9.63;;;;;;;;;;4991566;28;20924;-71
2021/09/13 05:21:12;;;;;;;13.93;9.70;;;;;;;;;;5000752;28;20179;-70
2021/09/13 05:23:37;;;;;;;13.43;9.17;;;;;;;;;;5006505;28;20195;-71
2021/09/13 05:26:02;;;;;;;15.63;11.47;;;;;;;;;;5006691;28;20660;-70
2021/09/13 05:28:27;;;;;;;19.10;10.40;;;;;;;;;;5004426;28;20187;-70
2021/09/13 05:30:53;;;;;;;12.93;8.57;;;;;;;;;;5008193;28;20374;-70
2021/09/13 05:33:18;;;;;;;13.37;9.67;;;;;;;;;;5007120;28;20198;-70
2021/09/13 05:35:43;;;;;;;13.13;10.03;;;;;;;;;;5004007;28;20210;-70
2021/09/13 05:38:09;;;;;;;12.47;10.20;;;;;;;;;;5005311;28;20646;-70
2021/09/13 05:40:34;;;;;;;15.33;11.97;;;;;;;;;;5002359;28;20277;-70
2021/09/13 05:43:04;;;;;;;16.40;11.75;;;;;;;;;;5001396;28;20210;-70
2021/09/13 05:45:30;;;;;;;14.43;11.77;;;;;;;;;;5002693;28;20281;-70
2021/09/13 05:47:55;;;;;;;17.17;12.57;;;;;;;;;;5002499;28;20724;-70
2021/09/13 05:50:20;;;;;;;14.90;12.33;;;;;;;;;;5001122;28;20182;-69
2021/09/13 05:52:45;;;;;;;15.40;11.33;;;;;;;;;;5005775;28;20208;-68
2021/09/13 05:55:11;;;;;;;17.83;12.38;;;;;;;;;;5011078;28;20274;-69
2021/09/13 05:57:37;;;;;;;14.53;11.57;;;;;;;;;;5004489;28;20183;-69
2021/09/13 06:00:03;;;;;;;16.10;11.60;;;;;;;;;;5001412;28;20183;-70
2021/09/13 06:05:02;;;;;;;16.88;13.35;;;;;;;;;;5006877;28;20642;-70
2021/09/13 06:07:27;;;;;;;17.48;13.43;;;;;;;;;;5004760;28;20191;-70
2021/09/13 06:09:53;;;;;;;16.95;13.48;;;;;;;;;;5010885;28;20174;-70
2021/09/13 06:12:18;;;;;;;15.68;12.88;;;;;;;;;;5013612;28;20262;-72
2021/09/13 06:14:43;;;;;;;18.77;12.80;;;;;;;;;;5015721;28;20239;-68
2021/09/13 06:17:09;;;;;;;16.70;12.88;;;;;;;;;;5013121;28;20218;-69
2021/09/13 06:19:34;;;;;;;14.38;12.27;;;;;;;;;;5013468;28;20198;-68
2021/09/13 06:22:00;;;;;;;19.55;11.98;;;;;;;;;;5007050;28;20194;-70
2021/09/13 06:24:25;;;;;;;14.23;11.00;;;;;;;;;;5013939;28;20744;-68
2021/09/13 06:26:50;;;;;;;17.65;11.98;;;;;;;;;;4996668;28;20639;-67
2021/09/13 06:29:15;;;;;;;12.10;10.80;;;;;;;;;;5006027;28;20191;-70
2021/09/13 06:31:40;;;;;;;12.95;10.70;;;;;;;;;;5002735;28;20257;-69
2021/09/13 06:34:06;;;;;;;11.60;9.77;;;;;;;;;;5008099;28;20623;-67
2021/09/13 06:36:31;;;;;;;14.15;9.00;;;;;;;;;;5011539;28;20213;-67
2021/09/13 06:38:56;;;;;;;11.40;10.20;;;;;;;;;;5012982;28;20188;-68
2021/09/13 06:41:21;;;;;;;11.68;8.77;;;;;;;;;;5012906;28;20700;-68
2021/09/13 06:43:47;;;;;;;10.93;8.07;;;;;;;;;;5008705;28;20194;-69
2021/09/13 06:46:20;;;;;;;10.23;7.85;;;;;;;;;;5009196;28;20450;-70
2021/09/13 06:48:46;;;;;;;7.97;6.43;;;;;;;;;;4987588;28;20556;-67
2021/09/13 06:51:11;;;;;;;9.05;6.60;;;;;;;;;;5007401;28;20204;-68
2021/09/13 06:53:37;;;;;;;7.93;5.53;;;;;;;;;;5012081;28;20206;-68
2021/09/13 06:56:04;;;;;;;6.15;5.18;;;;;;;;;;4993361;28;20225;-68
2021/09/13 06:58:29;;;;;;;7.15;5.43;;;;;;;;;;4993999;28;20180;-67
2021/09/13 07:00:55;;;;;;;7.97;5.85;;;;;;;;;;4991384;28;20257;-68
2021/09/13 07:03:20;;;;;;;7.70;5.22;;;;;;;;;;4989646;28;21210;-68
2021/09/13 07:05:46;;;;;;;9.43;5.30;;;;;;;;;;4993355;28;20199;-68
2021/09/13 07:08:11;;;;;;;6.82;4.90;;;;;;;;;;5007008;28;20266;-68
2021/09/13 07:10:36;;;;;;;7.32;4.30;;;;;;;;;;4999029;28;20561;-68
2021/09/13 07:13:01;;;;;;;6.67;4.27;;;;;;;;;;5005129;28;20230;-68
2021/09/13 07:15:27;;;;;;;7.07;4.40;;;;;;;;;;5000548;28;20806;-68
2021/09/13 07:17:52;;;;;;;7.47;4.32;;;;;;;;;;4992547;28;20193;-69
2021/09/13 07:20:17;;;;;;;6.72;4.13;;;;;;;;;;4981104;28;20233;-69
2021/09/13 07:22:42;;;;;;;9.32;4.53;;;;;;;;;;4990245;28;20812;-69
2021/09/13 07:25:08;;;;;;;9.00;4.30;;;;;;;;;;4991697;28;20183;-68
2021/09/13 07:27:34;;;;;;;7.70;4.57;;;;;;;;;;4991970;28;20194;-69
2021/09/13 07:30:01;;;;;;;9.93;4.35;;;;;;;;;;4992813;28;20175;-69
2021/09/13 07:32:26;;;;;;;3.90;3.28;;;;;;;;;;4992939;28;20658;-69
2021/09/13 07:34:51;;;;;;;4.43;3.00;;;;;;;;;;5002736;28;20230;-70
2021/09/13 07:37:17;;;;;;;5.90;2.87;;;;;;;;;;4999760;28;22131;-70
2021/09/13 07:39:42;;;;;;;4.68;2.70;;;;;;;;;;4996532;28;20498;-69
2021/09/13 07:42:07;;;;;;;4.00;1.90;;;;;;;;;;4974802;28;20175;-69
2021/09/13 07:44:32;;;;;;;3.10;1.85;;;;;;;;;;4973366;28;20848;-69
2021/09/13 07:46:57;;;;;;;5.22;2.85;;;;;;;;;;4991682;28;20211;-69
2021/09/13 07:49:23;;;;;;;6.53;2.97;;;;;;;;;;5000517;28;20178;-69
2021/09/13 07:51:48;;;;;;;5.82;2.95;;;;;;;;;;4993652;28;20800;-68
2021/09/13 07:54:14;;;;;;;7.65;2.85;;;;;;;;;;4991683;28;20214;-71
2021/09/13 07:56:39;;;;;;;5.45;2.10;;;;;;;;;;5000019;28;20179;-70
2021/09/13 07:59:05;;;;;;;6.03;2.30;;;;;;;;;;4995806;28;20870;-68
2021/09/13 08:01:30;;;;;;;2.70;1.42;;;;;;;;;;4990249;28;20824;-70
2021/09/13 08:03:56;;;;;;;1.98;1.42;;;;;;;;;;4991471;28;20249;-71
2021/09/13 08:06:21;;;;;;;3.13;1.40;;;;;;;;;;5003663;28;20612;-67
2021/09/13 08:08:46;;;;;;;2.50;1.23;;;;;;;;;;4992914;28;20211;-70
2021/09/13 08:11:12;;;;;;;3.20;1.30;;;;;;;;;;4996206;28;20205;-70
2021/09/13 08:13:39;;;;;;;2.40;1.10;;;;;;;;;;4988959;28;20708;-68
2021/09/13 08:16:05;;;;;;;2.13;1.40;;;;;;;;;;4997013;28;20459;-70
2021/09/13 08:18:30;;;;;;;4.10;1.50;;;;;;;;;;4995849;28;20644;-68
2021/09/13 08:20:55;;;;;;;2.07;1.20;;;;;;;;;;4980959;28;20762;-68
2021/09/13 08:23:20;;;;;;;3.73;1.90;;;;;;;;;;4994905;28;20452;-71
2021/09/13 08:25:45;;;;;;;3.33;1.13;;;;;;;;;;4999499;28;20525;-67
2021/09/13 08:28:12;;;;;;;3.27;1.07;;;;;;;;;;4992915;28;20520;-71
2021/09/13 08:30:37;;;;;;;4.63;1.42;;;;;;;;;;4992243;28;20425;-68
2021/09/13 08:33:02;;;;;;;3.40;1.75;;;;;;;;;;4994338;28;20670;-68
2021/09/13 08:35:28;;;;;;;11.13;2.30;;;;;;;;;;4997561;28;20306;-68
2021/09/13 08:37:53;;;;;;;3.45;2.30;;;;;;;;;;4992018;28;20436;-68
2021/09/13 08:40:18;;;;;;;2.90;1.80;;;;;;;;;;5001700;28;20186;-68
2021/09/13 08:42:48;;;;;;;2.10;1.90;;;;;;;;;;4976001;28;20179;-70
2021/09/13 08:45:21;;;;;;;4.07;1.70;;;;;;;;;;4996002;28;20495;-69
2021/09/13 08:47:58;;;;;;;4.38;1.80;;;;;;;;;;4989894;28;20188;-71
2021/09/13 08:50:34;;;;;;;2.67;1.35;;;;;;;;;;5007609;28;20528;-70
2021/09/13 08:53:00;;;;;;;3.78;2.03;;;;;;;;;;4992464;28;20254;-70
2021/09/13 08:55:26;;;;;;;7.22;1.95;;;;;;;;;;4995673;28;20218;-68
2021/09/13 08:57:51;;;;;;;3.17;1.95;;;;;;;;;;4991109;28;20370;-68
2021/09/13 09:00:17;;;;;;;5.15;2.22;;;;;;;;;;4990892;28;20191;-68
2021/09/13 09:02:43;;;;;;;2.38;1.52;;;;;;;;;;4990245;28;20179;-69
2021/09/13 09:05:08;;;;;;;3.28;2.05;;;;;;;;;;4994725;28;20196;-68
2021/09/13 09:07:48;;;;;;;2.67;1.90;;;;;;;;;;4993967;28;20187;-68
2021/09/13 09:10:18;;;;;;;2.97;1.60;;;;;;;;;;4995197;28;20661;-68
2021/09/13 09:13:02;;;;;;;4.43;2.00;;;;;;;;;;4995602;28;20183;-68
2021/09/13 09:15:28;;;;;;;3.10;2.17;;;;;;;;;;4997596;28;20567;-68
2021/09/13 09:17:54;;;;;;;2.60;1.73;;;;;;;;;;4996365;28;20668;-68
2021/09/13 09:20:20;;;;;;;4.28;2.78;;;;;;;;;;4998511;28;20195;-68
2021/09/13 09:22:46;;;;;;;2.95;1.80;;;;;;;;;;4986723;28;20190;-68
2021/09/13 09:25:25;;;;;;;3.28;2.40;;;;;;;;;;4995313;28;20722;-68
2021/09/13 09:27:51;;;;;;;4.45;2.55;;;;;;;;;;4997669;28;20182;-68
2021/09/13 09:30:17;;;;;;;2.45;1.98;;;;;;;;;;5002450;28;20179;-69
2021/09/13 09:32:42;;;;;;;4.65;2.33;;;;;;;;;;4998238;28;20277;-68
2021/09/13 09:35:17;;;;;;;3.42;2.40;;;;;;;;;;4995017;28;20249;-69
2021/09/13 09:37:42;;;;;;;2.65;2.15;;;;;;;;;;4992245;28;20660;-68
2021/09/13 09:40:09;;;;;;;5.57;2.42;;;;;;;;;;4997517;28;20249;-68
2021/09/13 09:42:36;;;;;;;3.78;2.47;;;;;;;;;;4992660;28;20264;-69
2021/09/13 09:45:03;;;;;;;4.20;2.45;;;;;;;;;;4998124;28;20179;-69
2021/09/13 09:47:28;;;;;;;3.00;1.95;;;;;;;;;;4995056;28;20178;-68
2021/09/13 09:49:55;;;;;;;2.30;1.55;;;;;;;;;;4993740;28;20725;-69
2021/09/13 09:52:31;;;;;;;3.22;1.58;;;;;;;;;;4994491;28;21076;-67
2021/09/13 09:55:08;;;;;;;1.83;1.35;;;;;;;;;;4998683;28;20183;-68
2021/09/13 09:57:33;;;;;;;2.30;1.80;;;;;;;;;;5006636;28;20556;-68
2021/09/13 09:59:58;;;;;;;3.10;1.40;;;;;;;;;;4998058;28;20183;-69
2021/09/13 10:02:24;;;;;;;5.03;1.30;;;;;;;;;;5000333;28;20174;-69
2021/09/13 10:04:54;;;;;;;2.40;1.20;;;;;;;;;;4992564;28;20451;-69
2021/09/13 10:07:20;;;;;;;3.15;1.17;;;;;;;;;;4996404;28;20210;-69
2021/09/13 10:09:45;;;;;;;2.28;0.80;;;;;;;;;;4997643;28;21862;-68
2021/09/13 10:12:11;;;;;;;1.70;0.70;;;;;;;;;;4992061;28;20177;-68
2021/09/13 10:14:36;;;;;;;1.63;0.57;;;;;;;;;;4995004;28;20199;-68
2021/09/13 10:17:02;;;;;;;1.42;0.60;;;;;;;;;;4994470;28;20652;-68
2021/09/13 10:19:28;;;;;;;2.00;0.65;;;;;;;;;;4993608;28;20301;-68
2021/09/13 10:21:54;;;;;;;1.58;0.70;;;;;;;;;;4993696;28;20191;-69
2021/09/13 10:24:20;;;;;;;0.98;0.60;;;;;;;;;;5004408;28;21829;-71
2021/09/13 10:26:50;;;;;;;4.10;0.90;;;;;;;;;;4994305;28;20207;-70
2021/09/13 10:29:19;;;;;;;2.42;0.80;;;;;;;;;;4993646;28;20187;-70
2021/09/13 10:31:47;;;;;;;3.17;1.33;;;;;;;;;;4993104;28;20252;-70
2021/09/13 10:34:16;;;;;;;2.20;1.00;;;;;;;;;;4994779;28;20350;-70
2021/09/13 10:37:00;;;;;;;4.90;0.95;;;;;;;;;;4998307;28;20680;-70
2021/09/13 10:39:44;;;;;;;0.90;0.68;;;;;;;;;;4997107;28;20259;-70
2021/09/13 10:42:09;;;;;;;1.10;0.70;;;;;;;;;;5010374;28;20175;-70
2021/09/13 10:44:36;;;;;;;3.30;1.10;;;;;;;;;;5005464;28;20198;-70
2021/09/13 10:47:05;;;;;;;2.20;0.70;;;;;;;;;;5005092;28;20464;-70
2021/09/13 10:49:31;;;;;;;1.48;0.70;;;;;;;;;;5005041;28;20262;-70
2021/09/13 10:52:15;;;;;;;1.33;0.70;;;;;;;;;;4998215;28;20339;-70
2021/09/13 10:54:59;;;;;;;2.88;0.80;;;;;;;;;;4991186;28;20195;-70
2021/09/13 10:57:42;;;;;;;1.92;0.60;;;;;;;;;;4993064;28;20179;-70
2021/09/13 11:00:08;;;;;;;1.25;0.77;;;;;;;;;;4996871;28;20195;-70
2021/09/13 11:02:33;;;;;;;1.63;0.73;;;;;;;;;;4993740;28;20181;-70
2021/09/13 11:05:17;;;;;;;2.03;0.90;;;;;;;;;;4992985;28;20657;-70
2021/09/13 11:08:02;;;;;;;1.40;0.60;;;;;;;;;;4993196;28;20448;-70
2021/09/13 11:10:27;;;;;;;1.77;0.50;;;;;;;;;;5002554;28;20218;-70
2021/09/13 11:12:54;;;;;;;2.30;0.53;;;;;;;;;;5003335;28;20211;-70
2021/09/13 11:15:20;;;;;;;1.00;0.50;;;;;;;;;;4995681;28;20495;-71
2021/09/13 11:17:52;;;;;;;3.53;0.77;;;;;;;;;;4995614;28;20186;-70
2021/09/13 11:20:26;;;;;;;1.33;0.70;;;;;;;;;;4993842;28;20190;-70
2021/09/13 11:22:51;;;;;;;1.10;0.50;;;;;;;;;;4991795;28;20317;-70
2021/09/13 11:25:17;;;;;;;1.00;0.50;;;;;;;;;;4993686;28;20680;-70
2021/09/13 11:27:42;;;;;;;1.30;0.40;;;;;;;;;;4990251;28;20444;-70
2021/09/13 11:30:07;;;;;;;2.28;0.82;;;;;;;;;;4996891;28;20494;-70
2021/09/13 11:32:33;;;;;;;1.02;0.40;;;;;;;;;;4994217;28;20178;-70
2021/09/13 11:34:58;;;;;;;3.42;0.68;;;;;;;;;;5007757;28;20247;-70
2021/09/13 11:37:26;;;;;;;2.20;0.57;;;;;;;;;;4995938;28;20622;-70
2021/09/13 11:39:57;;;;;;;2.75;0.60;;;;;;;;;;4997593;28;20435;-70
2021/09/13 11:42:26;;;;;;;0.75;0.40;;;;;;;;;;4992765;28;20202;-70
2021/09/13 11:44:52;;;;;;;0.68;0.43;;;;;;;;;;4998250;28;20206;-70
2021/09/13 11:47:22;;;;;;;0.88;0.30;;;;;;;;;;4992277;28;20219;-70
2021/09/13 11:49:49;;;;;;;1.63;0.70;;;;;;;;;;4996166;28;20187;-70
2021/09/13 11:52:16;;;;;;;0.70;0.50;;;;;;;;;;4993915;28;20923;-70
2021/09/13 11:54:44;;;;;;;0.55;0.43;;;;;;;;;;4996291;28;20672;-70
2021/09/13 11:57:19;;;;;;;1.40;0.52;;;;;;;;;;4994789;28;20184;-70
2021/09/13 11:59:49;;;;;;;1.17;0.52;;;;;;;;;;4994751;28;20266;-70
2021/09/13 12:02:16;;;;;;;1.23;0.40;;;;;;;;;;4994620;28;20206;-70
2021/09/13 12:04:41;;;;;;;0.73;0.20;;;;;;;;;;4993175;28;20246;-70
2021/09/13 12:07:07;;;;;;;0.77;0.20;;;;;;;;;;4993883;28;20716;-70
2021/09/13 12:09:33;;;;;;;1.80;0.40;;;;;;;;;;4991108;28;20187;-70
2021/09/13 12:11:58;;;;;;;0.40;0.30;;;;;;;;;;4996075;28;20179;-70
2021/09/13 12:14:23;;;;;;;0.82;0.20;;;;;;;;;;4996889;28;20210;-70
2021/09/13 12:17:08;;;;;;;0.55;0.30;;;;;;;;;;4979876;22;20641;-70
2021/09/13 12:19:33;;;;;;;1.40;0.40;;;;;;;;;;4957934;28;20180;-68
2021/09/13 12:22:00;;;;;;;0.40;0.20;;;;;;;;;;4958449;28;20655;-68
2021/09/13 12:24:25;;;;;;;1.52;0.40;;;;;;;;;;4958664;28;20191;-69
2021/09/13 12:26:51;;;;;;;1.00;0.60;;;;;;;;;;4963320;28;20223;-69
2021/09/13 12:29:16;;;;;;;1.35;0.47;;;;;;;;;;4957829;28;20180;-69
2021/09/13 12:31:41;;;;;;;0.47;0.20;;;;;;;;;;4958014;28;20673;-69
2021/09/13 12:34:06;;;;;;;0.77;0.40;;;;;;;;;;4959327;28;20188;-69
2021/09/13 12:36:31;;;;;;;1.20;0.40;;;;;;;;;;4960465;28;22015;-69
2021/09/13 12:38:57;;;;;;;1.60;0.20;;;;;;;;;;4956056;28;20461;-69
2021/09/13 12:41:36;;;;;;;2.15;0.30;;;;;;;;;;4940636;28;20465;-69
2021/09/13 12:44:15;;;;;;;1.58;0.20;;;;;;;;;;4959187;28;20681;-68
2021/09/13 12:46:45;;;;;;;1.58;0.50;;;;;;;;;;4960847;28;20673;-69
2021/09/13 12:49:11;;;;;;;1.38;0.40;;;;;;;;;;4960123;28;20869;-69
2021/09/13 12:51:36;;;;;;;1.55;0.30;;;;;;;;;;4962442;28;20219;-70
2021/09/13 12:54:03;;;;;;;2.17;0.43;;;;;;;;;;4959436;28;20177;-69
2021/09/13 12:56:30;;;;;;;0.45;0.25;;;;;;;;;;4959123;28;20455;-69
2021/09/13 12:59:12;;;;;;;1.80;0.40;;;;;;;;;;4936971;28;20191;-69
2021/09/13 13:01:39;;;;;;;1.15;0.45;;;;;;;;;;4960557;28;20184;-69
2021/09/13 13:04:05;;;;;;;0.98;0.43;;;;;;;;;;4957506;28;20199;-69
2021/09/13 13:06:31;;;;;;;0.88;0.40;;;;;;;;;;4956939;28;21194;-70
2021/09/13 13:08:56;;;;;;;1.38;0.40;;;;;;;;;;4957340;28;20176;-69
2021/09/13 13:11:22;;;;;;;1.53;0.50;;;;;;;;;;4958540;28;20187;-69
2021/09/13 13:13:47;;;;;;;1.27;0.53;;;;;;;;;;4956150;28;21274;-70
2021/09/13 13:16:12;;;;;;;1.93;0.63;;;;;;;;;;4959345;28;20203;-71
2021/09/13 13:18:39;;;;;;;2.50;0.40;;;;;;;;;;4957333;28;20434;-70
2021/09/13 13:21:04;;;;;;;1.73;0.52;;;;;;;;;;4960521;28;20761;-69
2021/09/13 13:23:29;;;;;;;1.85;0.60;;;;;;;;;;4957975;28;20189;-70
2021/09/13 13:25:55;;;;;;;1.90;0.57;;;;;;;;;;4958661;28;22028;-70
2021/09/13 13:28:22;;;;;;;2.70;0.67;;;;;;;;;;4957078;28;20437;-69
2021/09/13 13:30:47;;;;;;;0.88;0.50;;;;;;;;;;4960482;28;20418;-69
2021/09/13 13:33:12;;;;;;;1.52;0.35;;;;;;;;;;4958990;28;20243;-69
2021/09/13 13:35:39;;;;;;;1.83;0.60;;;;;;;;;;4958336;28;20227;-69
2021/09/13 13:38:04;;;;;;;2.53;0.50;;;;;;;;;;4955976;28;20802;-69
2021/09/13 13:40:31;;;;;;;2.45;0.98;;;;;;;;;;4958016;28;20176;-69
2021/09/13 13:42:56;;;;;;;3.00;0.50;;;;;;;;;;4957382;28;20184;-69
2021/09/13 13:45:22;;;;;;;2.58;0.70;;;;;;;;;;4964092;28;20211;-71
2021/09/13 13:47:47;;;;;;;1.30;0.70;;;;;;;;;;4957529;28;20184;-69
2021/09/13 13:50:13;;;;;;;1.50;0.80;;;;;;;;;;4959139;28;20389;-69
2021/09/13 13:52:40;;;;;;;1.15;0.60;;;;;;;;;;4964994;28;20426;-70
2021/09/13 13:55:05;;;;;;;2.17;0.88;;;;;;;;;;4963950;28;20271;-70
2021/09/13 13:57:31;;;;;;;1.88;1.05;;;;;;;;;;4965478;28;20610;-70
2021/09/13 13:59:56;;;;;;;1.42;0.82;;;;;;;;;;4959929;28;20243;-69
2021/09/13 14:02:22;;;;;;;3.50;1.10;;;;;;;;;;4960335;28;20529;-69
2021/09/13 14:04:47;;;;;;;3.00;1.00;;;;;;;;;;4963320;28;20521;-69
2021/09/13 14:07:12;;;;;;;1.27;0.90;;;;;;;;;;4962430;28;20476;-69
2021/09/13 14:09:38;;;;;;;1.88;0.98;;;;;;;;;;4963055;28;20948;-69
2021/09/13 14:12:03;;;;;;;7.25;1.40;;;;;;;;;;4961533;28;20675;-70
2021/09/13 14:14:28;;;;;;;3.45;1.13;;;;;;;;;;4961754;28;20172;-69
2021/09/13 14:16:54;;;;;;;2.88;1.60;;;;;;;;;;4961082;28;20219;-68
2021/09/13 14:19:19;;;;;;;1.77;1.02;;;;;;;;;;4963962;28;20213;-68
2021/09/13 14:21:44;;;;;;;3.40;1.13;;;;;;;;;;4963425;28;20185;-69
2021/09/13 14:24:10;;;;;;;4.00;0.90;;;;;;;;;;4960454;28;21877;-68
2021/09/13 14:26:35;;;;;;;3.05;0.65;;;;;;;;;;4963290;28;21414;-69
2021/09/13 14:29:00;;;;;;;1.43;0.97;;;;;;;;;;4965781;28;20177;-68
2021/09/13 14:31:25;;;;;;;2.73;0.90;;;;;;;;;;4961591;28;20883;-69
2021/09/13 14:33:50;;;;;;;4.30;0.95;;;;;;;;;;4957388;28;20529;-69
2021/09/13 14:36:16;;;;;;;6.15;1.30;;;;;;;;;;4958203;28;20255;-69
2021/09/13 14:38:41;;;;;;;4.80;1.48;;;;;;;;;;4957585;28;20192;-69
2021/09/13 14:41:06;;;;;;;3.10;1.63;;;;;;;;;;4961636;28;20198;-69